Norwegian Sky — C6PZ8 — position and weather

sailwx.info

Track history (hours):
 
Tides and Currents Weather Stations Pressure Air Temp Water Temp Dewpoint Dewpoint Depression Visibility Wind Speed Wind Dir Waves Ship Positions

Norwegian Sky (Norway)

Operator: Norwegian Cruise Line

Last reported at 2019-Mar-22 11:59 UTC. Time now 2019-Mar-22 12:22 UTC.
Position N 25°47' W 080°11'.

Length 258 m; draft 8.2 m.

Type: Ship. MMSI: 308865000.

Date/timePositionNaut miles runAvg speedWind from/ knotsBaromVisibWave heightAir tempDewpointWater temp
2019-Mar-22 11:59N 25°47' W 080°11'0 0.0
2019-Mar-22 11:29N 25°47' W 080°11'0 0.0
2019-Mar-22 10:59N 25°47' W 080°11'0 0.0
2019-Mar-22 10:30N 25°47' W 080°11'0 0.1
2019-Mar-22 10:00N 25°47' W 080°11'1 2.5
2019-Mar-22 09:30N 25°46' W 080°09'510.6
2019-Mar-22 09:01N 25°47' W 080°04'4 8.3
2019-Mar-22 08:30N 25°47' W 079°59'4 8.4
2019-Mar-22 08:01N 25°47' W 079°54'4 8.0
2019-Mar-22 07:30N 25°47' W 079°50'4 8.0
2019-Mar-22 07:00N 25°48' W 079°45'4 7.7
2019-Mar-22 06:31N 25°48' W 079°41'4 7.7
2019-Mar-22 06:01N 25°51' W 079°38'4 7.6
2019-Mar-22 05:30N 25°54' W 079°35'4 7.6
2019-Mar-22 05:00N 25°57' W 079°32'4 7.5
2019-Mar-22 04:30N 25°59' W 079°29'4 7.6
2019-Mar-22 04:00N 26°02' W 079°26'4 8.6
2019-Mar-22 03:30N 26°05' W 079°23'4 8.7
2019-Mar-22 03:01N 26°08' W 079°19'4 9.0
2019-Mar-22 02:30N 26°10' W 079°15'6 0.3
2019-Mar-21 07:56N 26°08' W 079°21'818.9
2019-Mar-21 07:30N 26°02' W 079°27'1020.7
2019-Mar-21 07:00N 25°53' W 079°33'1121.4
2019-Mar-21 06:30N 25°42' W 079°35'1121.3
2019-Mar-21 06:00N 25°32' W 079°36'  
2019-Mar-18 23:13N 25°15' W 080°01'418.7
2019-Mar-18 23:00N 25°19' W 080°01'918.9
2019-Mar-18 22:30N 25°29' W 080°01'1019.6
2019-Mar-18 22:00N 25°38' W 080°02'815.3
2019-Mar-18 21:30N 25°46' W 080°05'5 9.5
2019-Mar-18 21:00N 25°47' W 080°10'0 0.2
2019-Mar-18 20:28N 25°46' W 080°10'0 0.0
2019-Mar-18 19:58N 25°46' W 080°10'0 0.0
2019-Mar-18 19:28N 25°46' W 080°10'0 0.0
2019-Mar-18 18:58N 25°46' W 080°10'0 0.0
2019-Mar-18 18:28N 25°46' W 080°10'0 0.0
2019-Mar-18 17:58N 25°46' W 080°10'0 0.0
2019-Mar-18 17:28N 25°46' W 080°10'0 0.0
2019-Mar-18 16:58N 25°46' W 080°10'0 0.0
2019-Mar-18 16:28N 25°46' W 080°10'0 0.0
2019-Mar-18 15:58N 25°46' W 080°10'0 0.0
2019-Mar-18 15:28N 25°46' W 080°10'0 0.0
2019-Mar-18 14:58N 25°46' W 080°10'0 0.0
2019-Mar-18 14:28N 25°46' W 080°10'0 0.0
2019-Mar-18 13:58N 25°46' W 080°10'0 0.0
2019-Mar-18 13:28N 25°46' W 080°10'0 0.0
2019-Mar-18 12:58N 25°46' W 080°10'0 0.0
2019-Mar-18 12:25N 25°46' W 080°10'0 0.0
2019-Mar-18 11:58N 25°46' W 080°10'0 0.0
2019-Mar-18 11:25N 25°46' W 080°10'0 0.0
2019-Mar-18 10:58N 25°46' W 080°10'0 0.0
2019-Mar-18 10:30N 25°46' W 080°10'1 1.5
2019-Mar-18 10:00N 25°47' W 080°11'1 2.7
2019-Mar-18 09:30N 25°46' W 080°09'510.8
2019-Mar-18 09:00N 25°47' W 080°03'5 9.0
2019-Mar-18 08:30N 25°47' W 079°58'5 9.2
2019-Mar-18 08:00N 25°47' W 079°53'5 9.1
2019-Mar-18 07:30N 25°47' W 079°48'5 9.1
2019-Mar-18 07:00N 25°47' W 079°43'4 8.7
2019-Mar-18 06:30N 25°50' W 079°39'5 9.6
2019-Mar-18 06:00N 25°53' W 079°35'917.6
2019-Mar-18 05:30N 25°59' W 079°28'919.0
2019-Mar-18 05:01N 26°06' W 079°21'1019.6
2019-Mar-18 04:30N 26°11' W 079°11'9 0.2
2019-Mar-16 03:05N 26°07' W 079°21'1 9.7
2019-Mar-16 03:00N 26°07' W 079°21'5 9.8
2019-Mar-16 02:30N 26°03' W 079°25'510.1
2019-Mar-16 02:00N 25°59' W 079°29'5 9.2
2019-Mar-16 01:30N 25°56' W 079°32'4 9.0
2019-Mar-16 01:00N 25°53' W 079°36'5 9.3
2019-Mar-16 00:30N 25°50' W 079°39'5 9.3
2019-Mar-16 00:00N 25°47' W 079°43'510.0
2019-Mar-15 23:30N 25°47' W 079°49'5 9.9
2019-Mar-15 23:00N 25°47' W 079°54'510.0
2019-Mar-15 22:30N 25°47' W 079°60'5 9.1
2019-Mar-15 22:00N 25°46' W 080°05'4 8.8
2019-Mar-15 21:30N 25°47' W 080°10'0 0.4
2019-Mar-15 21:00N 25°47' W 080°10'0 0.1
2019-Mar-15 20:29N 25°47' W 080°10'0 0.0
2019-Mar-15 19:59N 25°47' W 080°10'0 0.0
2019-Mar-15 19:20N 25°47' W 080°10'0 0.0
2019-Mar-15 18:59N 25°47' W 080°10'0 0.0
2019-Mar-15 18:23N 25°47' W 080°10'0 0.0
2019-Mar-15 17:59N 25°47' W 080°10'0 0.0
2019-Mar-15 17:26N 25°47' W 080°10'0 0.0
2019-Mar-15 16:56N 25°47' W 080°10'0 0.0
2019-Mar-15 16:26N 25°47' W 080°10'0 0.0
2019-Mar-15 15:59N 25°47' W 080°10'0 0.0
2019-Mar-15 15:26N 25°47' W 080°10'0 0.0
2019-Mar-15 14:59N 25°47' W 080°10'0 0.0
2019-Mar-15 14:29N 25°47' W 080°10'0 0.0
2019-Mar-15 13:59N 25°47' W 080°10'0 0.0
2019-Mar-15 13:26N 25°47' W 080°10'0 0.0
2019-Mar-15 12:59N 25°47' W 080°10'0 0.0
2019-Mar-15 12:29N 25°47' W 080°10'0 0.0
2019-Mar-15 11:56N 25°47' W 080°10'0 0.0
2019-Mar-15 11:29N 25°47' W 080°10'0 0.0
2019-Mar-15 10:59N 25°47' W 080°10'0 0.0
2019-Mar-15 10:29N 25°47' W 080°10'0 0.0
2019-Mar-15 09:59N 25°47' W 080°10'0 0.1
2019-Mar-15 09:30N 25°47' W 080°10'2 5.0
2019-Mar-15 09:00N 25°46' W 080°07'713.0
2019-Mar-15 08:30N 25°47' W 080°01'4 8.6
2019-Mar-15 08:00N 25°47' W 079°56'4 8.7
2019-Mar-15 07:30N 25°47' W 079°51'5 9.0
2019-Mar-15 07:00N 25°48' W 079°46'4 7.6
2019-Mar-15 06:30N 25°46' W 079°42'4 8.9
2019-Mar-15 06:00N 25°42' W 079°40'5 9.1
2019-Mar-15 05:30N 25°38' W 079°39'3 6.6
2019-Mar-15 05:00N 25°40' W 079°36'5 9.3
2019-Mar-15 04:30N 25°44' W 079°35'5 9.3
2019-Mar-15 04:00N 25°49' W 079°34'4 8.9
2019-Mar-15 03:30N 25°53' W 079°33'4 8.9
2019-Mar-15 03:00N 25°58' W 079°33'4 8.9
2019-Mar-15 02:30N 26°02' W 079°32'4 8.4
2019-Mar-15 02:00N 26°06' W 079°31'4 8.4
2019-Mar-15 01:30N 26°10' W 079°30'4 8.3
2019-Mar-15 01:00N 26°14' W 079°30'4 8.5
2019-Mar-15 00:30N 26°19' W 079°29'4 8.8
2019-Mar-15 00:00N 26°23' W 079°28'8 2.9
2019-Mar-14 21:10N 26°19' W 079°20'2 9.4
2019-Mar-14 21:00N 26°18' W 079°19'  
2019-Mar-12 14:41N 26°31' W 078°46'0 0.0
2019-Mar-12 12:41N 26°31' W 078°46'  
Track history (hours):
 
Tides and Currents Weather Stations Pressure Air Temp Water Temp Dewpoint Dewpoint Depression Visibility Wind Speed Wind Dir Waves Ship Positions

Norwegian Sky (Norway)

Operator: Norwegian Cruise Line

Last reported at 2019-Mar-22 11:59 UTC. Time now 2019-Mar-22 12:22 UTC.
Position N 25°47' W 080°11'.

Length 258 m; draft 8.2 m.

Type: Ship. MMSI: 308865000.

Date/timePositionNaut miles runAvg speedWind from/ knotsBaromVisibWave heightAir tempDewpointWater temp
2019-Mar-22 11:59N 25°47' W 080°11'0 0.0
2019-Mar-22 11:29N 25°47' W 080°11'0 0.0
2019-Mar-22 10:59N 25°47' W 080°11'0 0.0
2019-Mar-22 10:30N 25°47' W 080°11'0 0.1
2019-Mar-22 10:00N 25°47' W 080°11'1 2.5
2019-Mar-22 09:30N 25°46' W 080°09'510.6
2019-Mar-22 09:01N 25°47' W 080°04'4 8.3
2019-Mar-22 08:30N 25°47' W 079°59'4 8.4
2019-Mar-22 08:01N 25°47' W 079°54'4 8.0
2019-Mar-22 07:30N 25°47' W 079°50'4 8.0
2019-Mar-22 07:00N 25°48' W 079°45'4 7.7
2019-Mar-22 06:31N 25°48' W 079°41'4 7.7
2019-Mar-22 06:01N 25°51' W 079°38'4 7.6
2019-Mar-22 05:30N 25°54' W 079°35'4 7.6
2019-Mar-22 05:00N 25°57' W 079°32'4 7.5
2019-Mar-22 04:30N 25°59' W 079°29'4 7.6
2019-Mar-22 04:00N 26°02' W 079°26'4 8.6
2019-Mar-22 03:30N 26°05' W 079°23'4 8.7
2019-Mar-22 03:01N 26°08' W 079°19'4 9.0
2019-Mar-22 02:30N 26°10' W 079°15'6 0.3
2019-Mar-21 07:56N 26°08' W 079°21'818.9
2019-Mar-21 07:30N 26°02' W 079°27'1020.7
2019-Mar-21 07:00N 25°53' W 079°33'1121.4
2019-Mar-21 06:30N 25°42' W 079°35'1121.3
2019-Mar-21 06:00N 25°32' W 079°36'  
2019-Mar-18 23:13N 25°15' W 080°01'418.7
2019-Mar-18 23:00N 25°19' W 080°01'918.9
2019-Mar-18 22:30N 25°29' W 080°01'1019.6
2019-Mar-18 22:00N 25°38' W 080°02'815.3
2019-Mar-18 21:30N 25°46' W 080°05'5 9.5
2019-Mar-18 21:00N 25°47' W 080°10'0 0.2
2019-Mar-18 20:28N 25°46' W 080°10'0 0.0
2019-Mar-18 19:58N 25°46' W 080°10'0 0.0
2019-Mar-18 19:28N 25°46' W 080°10'0 0.0
2019-Mar-18 18:58N 25°46' W 080°10'0 0.0
2019-Mar-18 18:28N 25°46' W 080°10'0 0.0
2019-Mar-18 17:58N 25°46' W 080°10'0 0.0
2019-Mar-18 17:28N 25°46' W 080°10'0 0.0
2019-Mar-18 16:58N 25°46' W 080°10'0 0.0
2019-Mar-18 16:28N 25°46' W 080°10'0 0.0
2019-Mar-18 15:58N 25°46' W 080°10'0 0.0
2019-Mar-18 15:28N 25°46' W 080°10'0 0.0
2019-Mar-18 14:58N 25°46' W 080°10'0 0.0
2019-Mar-18 14:28N 25°46' W 080°10'0 0.0
2019-Mar-18 13:58N 25°46' W 080°10'0 0.0
2019-Mar-18 13:28N 25°46' W 080°10'0 0.0
2019-Mar-18 12:58N 25°46' W 080°10'0 0.0
2019-Mar-18 12:25N 25°46' W 080°10'0 0.0
2019-Mar-18 11:58N 25°46' W 080°10'0 0.0
2019-Mar-18 11:25N 25°46' W 080°10'0 0.0
2019-Mar-18 10:58N 25°46' W 080°10'0 0.0
2019-Mar-18 10:30N 25°46' W 080°10'1 1.5
2019-Mar-18 10:00N 25°47' W 080°11'1 2.7
2019-Mar-18 09:30N 25°46' W 080°09'510.8
2019-Mar-18 09:00N 25°47' W 080°03'5 9.0
2019-Mar-18 08:30N 25°47' W 079°58'5 9.2
2019-Mar-18 08:00N 25°47' W 079°53'5 9.1
2019-Mar-18 07:30N 25°47' W 079°48'5 9.1
2019-Mar-18 07:00N 25°47' W 079°43'4 8.7
2019-Mar-18 06:30N 25°50' W 079°39'5 9.6
2019-Mar-18 06:00N 25°53' W 079°35'917.6
2019-Mar-18 05:30N 25°59' W 079°28'919.0
2019-Mar-18 05:01N 26°06' W 079°21'1019.6
2019-Mar-18 04:30N 26°11' W 079°11'9 0.2
2019-Mar-16 03:05N 26°07' W 079°21'1 9.7
2019-Mar-16 03:00N 26°07' W 079°21'5 9.8
2019-Mar-16 02:30N 26°03' W 079°25'510.1
2019-Mar-16 02:00N 25°59' W 079°29'5 9.2
2019-Mar-16 01:30N 25°56' W 079°32'4 9.0
2019-Mar-16 01:00N 25°53' W 079°36'5 9.3
2019-Mar-16 00:30N 25°50' W 079°39'5 9.3
2019-Mar-16 00:00N 25°47' W 079°43'510.0
2019-Mar-15 23:30N 25°47' W 079°49'5 9.9
2019-Mar-15 23:00N 25°47' W 079°54'510.0
2019-Mar-15 22:30N 25°47' W 079°60'5 9.1
2019-Mar-15 22:00N 25°46' W 080°05'4 8.8
2019-Mar-15 21:30N 25°47' W 080°10'0 0.4
2019-Mar-15 21:00N 25°47' W 080°10'0 0.1
2019-Mar-15 20:29N 25°47' W 080°10'0 0.0
2019-Mar-15 19:59N 25°47' W 080°10'0 0.0
2019-Mar-15 19:20N 25°47' W 080°10'0 0.0
2019-Mar-15 18:59N 25°47' W 080°10'0 0.0
2019-Mar-15 18:23N 25°47' W 080°10'0 0.0
2019-Mar-15 17:59N 25°47' W 080°10'0 0.0
2019-Mar-15 17:26N 25°47' W 080°10'0 0.0
2019-Mar-15 16:56N 25°47' W 080°10'0 0.0
2019-Mar-15 16:26N 25°47' W 080°10'0 0.0
2019-Mar-15 15:59N 25°47' W 080°10'0 0.0
2019-Mar-15 15:26N 25°47' W 080°10'0 0.0
2019-Mar-15 14:59N 25°47' W 080°10'0 0.0
2019-Mar-15 14:29N 25°47' W 080°10'0 0.0
2019-Mar-15 13:59N 25°47' W 080°10'0 0.0
2019-Mar-15 13:26N 25°47' W 080°10'0 0.0
2019-Mar-15 12:59N 25°47' W 080°10'0 0.0
2019-Mar-15 12:29N 25°47' W 080°10'0 0.0
2019-Mar-15 11:56N 25°47' W 080°10'0 0.0
2019-Mar-15 11:29N 25°47' W 080°10'0 0.0
2019-Mar-15 10:59N 25°47' W 080°10'0 0.0
2019-Mar-15 10:29N 25°47' W 080°10'0 0.0
2019-Mar-15 09:59N 25°47' W 080°10'0 0.1
2019-Mar-15 09:30N 25°47' W 080°10'2 5.0
2019-Mar-15 09:00N 25°46' W 080°07'713.0
2019-Mar-15 08:30N 25°47' W 080°01'4 8.6
2019-Mar-15 08:00N 25°47' W 079°56'4 8.7
2019-Mar-15 07:30N 25°47' W 079°51'5 9.0
2019-Mar-15 07:00N 25°48' W 079°46'4 7.6
2019-Mar-15 06:30N 25°46' W 079°42'4 8.9
2019-Mar-15 06:00N 25°42' W 079°40'5 9.1
2019-Mar-15 05:30N 25°38' W 079°39'3 6.6
2019-Mar-15 05:00N 25°40' W 079°36'5 9.3
2019-Mar-15 04:30N 25°44' W 079°35'5 9.3
2019-Mar-15 04:00N 25°49' W 079°34'4 8.9
2019-Mar-15 03:30N 25°53' W 079°33'4 8.9
2019-Mar-15 03:00N 25°58' W 079°33'4 8.9
2019-Mar-15 02:30N 26°02' W 079°32'4 8.4
2019-Mar-15 02:00N 26°06' W 079°31'4 8.4
2019-Mar-15 01:30N 26°10' W 079°30'4 8.3
2019-Mar-15 01:00N 26°14' W 079°30'4 8.5
2019-Mar-15 00:30N 26°19' W 079°29'4 8.8
2019-Mar-15 00:00N 26°23' W 079°28'8 2.9
2019-Mar-14 21:10N 26°19' W 079°20'2 9.4
2019-Mar-14 21:00N 26°18' W 079°19'  
2019-Mar-12 14:41N 26°31' W 078°46'0 0.0
2019-Mar-12 12:41N 26°31' W 078°46'  

Dump ship's entire track history